Time;durP1;ratioP1;P1;durP2;ratioP2;P2;SDS_P1;SDS_P2;PMS_P1;PMS_P2;Temp;Humidity;BMP_temperature;BMP_pressure;BME280_temperature;BME280_humidity;BME280_pressure;Samples;Min_cycle;Max_cycle;Signal;HPM_P1;HPM_P2
2022/01/29 00:01:10;;;;;;;49.03;6.65;;;;;;;6.06;45.06;102056.06;5049798;28;20099;-69
2022/01/29 00:03:36;;;;;;;39.53;5.47;;;;;;;5.79;45.75;102042.69;5052931;28;20044;-69
2022/01/29 00:06:04;;;;;;;32.30;5.13;;;;;;;5.78;45.76;102040.97;5055429;28;20068;-69
2022/01/29 00:08:31;;;;;;;28.20;5.00;;;;;;;5.44;46.22;102042.22;5054403;28;20098;-69
2022/01/29 00:11:02;;;;;;;35.05;5.00;;;;;;;5.54;46.03;102038.03;5054661;28;20531;-69
2022/01/29 00:13:29;;;;;;;34.63;5.13;;;;;;;5.24;46.93;102041.63;5053963;28;20049;-69
2022/01/29 00:15:55;;;;;;;33.53;4.60;;;;;;;5.46;46.54;102035.88;5054021;28;20052;-70
2022/01/29 00:18:21;;;;;;;30.80;5.03;;;;;;;4.93;47.82;102028.47;5054215;28;20049;-70
2022/01/29 00:20:48;;;;;;;38.22;6.18;;;;;;;5.23;47.20;102029.28;5053312;28;20393;-70
2022/01/29 00:23:14;;;;;;;37.47;4.07;;;;;;;5.32;47.15;102032.31;5053955;28;20072;-70
2022/01/29 00:25:41;;;;;;;33.78;5.03;;;;;;;5.63;46.16;102029.50;5062712;28;20055;-70
2022/01/29 00:28:07;;;;;;;47.97;5.60;;;;;;;5.29;46.71;102018.28;5056044;28;20045;-73
2022/01/29 00:30:39;;;;;;;37.08;5.13;;;;;;;5.45;46.60;102012.84;5052689;28;20069;-73
2022/01/29 00:33:06;;;;;;;38.53;4.82;;;;;;;5.35;46.85;102013.50;5057550;28;20072;-73
2022/01/29 00:35:33;;;;;;;31.67;4.93;;;;;;;5.62;45.90;102003.81;5053474;28;20375;-73
2022/01/29 00:37:59;;;;;;;40.80;4.97;;;;;;;5.33;46.90;101999.47;5053977;28;20124;-73
2022/01/29 00:40:26;;;;;;;28.55;4.88;;;;;;;5.23;46.82;102005.34;5055137;28;20095;-73
2022/01/29 00:42:53;;;;;;;38.88;5.68;;;;;;;5.50;46.61;102015.22;5052377;28;20087;-73
2022/01/29 00:45:19;;;;;;;38.13;4.82;;;;;;;5.04;47.67;102012.75;5046344;28;20072;-73
2022/01/29 00:47:46;;;;;;;49.47;6.38;;;;;;;5.24;47.03;102011.50;5055680;28;20052;-73
2022/01/29 00:50:13;;;;;;;36.45;5.15;;;;;;;5.26;46.93;102013.13;5054646;28;20440;-73
2022/01/29 00:52:39;;;;;;;29.13;5.05;;;;;;;5.48;46.48;102009.13;5052528;28;20048;-73
2022/01/29 00:55:08;;;;;;;40.05;5.82;;;;;;;4.85;48.21;102007.66;5053473;28;20436;-73
2022/01/29 00:57:38;;;;;;;31.35;4.80;;;;;;;4.75;48.18;101996.72;5054204;28;20120;-73
2022/01/29 01:00:07;;;;;;;23.70;4.53;;;;;;;5.09;47.74;101989.38;5035780;28;20048;-73
2022/01/29 01:02:33;;;;;;;39.63;4.93;;;;;;;4.26;49.20;101985.41;5053764;28;20072;-73
2022/01/29 01:05:00;;;;;;;33.90;5.03;;;;;;;5.00;47.76;101968.63;5055861;28;20056;-73
2022/01/29 01:07:27;;;;;;;35.38;5.05;;;;;;;5.33;47.11;101962.22;5052739;28;20040;-73
2022/01/29 01:09:53;;;;;;;32.78;5.55;;;;;;;5.33;47.02;101952.41;5050901;28;20075;-73
2022/01/29 01:12:20;;;;;;;45.13;5.72;;;;;;;5.23;47.13;101938.81;5062482;28;20119;-73
2022/01/29 01:14:46;;;;;;;38.78;5.22;;;;;;;4.88;48.12;101937.50;5051491;28;20045;-72
2022/01/29 01:17:13;;;;;;;31.88;6.60;;;;;;;5.04;47.64;101941.78;5051761;28;20123;-73
2022/01/29 01:19:40;;;;;;;38.13;4.68;;;;;;;4.75;48.39;101934.72;5052039;28;20530;-73
2022/01/29 01:22:06;;;;;;;44.95;5.47;;;;;;;4.78;48.26;101937.19;5051597;28;20128;-73
2022/01/29 01:24:32;;;;;;;39.55;6.30;;;;;;;4.72;48.73;101932.22;5051082;28;20065;-73
2022/01/29 01:26:59;;;;;;;36.80;4.72;;;;;;;4.87;48.30;101927.78;5051034;28;20064;-72
2022/01/29 01:29:31;;;;;;;39.13;6.05;;;;;;;5.18;47.78;101919.66;5051003;28;20073;-73
2022/01/29 01:31:58;;;;;;;37.22;5.32;;;;;;;4.70;48.87;101903.09;5050967;28;20081;-73
2022/01/29 01:34:28;;;;;;;38.22;5.57;;;;;;;5.00;48.21;101899.50;5051448;28;20493;-73
2022/01/29 01:37:00;;;;;;;40.20;5.10;;;;;;;4.56;49.04;101882.66;5051273;28;20421;-72
2022/01/29 01:39:31;;;;;;;32.35;4.93;;;;;;;4.63;49.11;101880.50;5051169;28;20048;-73
2022/01/29 01:42:07;;;;;;;34.23;5.50;;;;;;;5.01;48.31;101871.97;5051089;28;20144;-74
2022/01/29 01:44:38;;;;;;;36.15;6.00;;;;;;;4.64;49.21;101879.53;5051107;28;20300;-73
2022/01/29 01:47:05;;;;;;;32.40;4.47;;;;;;;4.21;50.44;101871.47;5051201;28;20047;-73
2022/01/29 01:49:32;;;;;;;36.85;5.40;;;;;;;5.01;48.42;101869.31;5050603;28;20679;-73
2022/01/29 01:51:59;;;;;;;32.83;4.95;;;;;;;4.89;48.62;101870.06;5051136;28;20540;-73
2022/01/29 01:54:25;;;;;;;34.08;4.90;;;;;;;5.02;48.24;101863.03;5050602;28;20103;-73
2022/01/29 01:56:52;;;;;;;40.10;5.60;;;;;;;4.76;49.05;101846.91;5053141;28;20461;-73
2022/01/29 01:59:18;;;;;;;38.20;6.03;;;;;;;5.08;48.16;101830.72;5055056;28;20150;-73
2022/01/29 02:01:45;;;;;;;52.08;5.72;;;;;;;4.84;48.85;101838.44;5054533;28;20441;-73
2022/01/29 02:04:12;;;;;;;40.13;5.32;;;;;;;4.73;49.41;101832.94;5054271;28;20045;-73
2022/01/29 02:10:10;;;;;;;39.63;5.80;;;;;;;4.75;49.20;101821.25;5061208;28;20121;-73
2022/01/29 02:12:57;;;;;;;38.85;5.60;;;;;;;4.89;49.11;101811.56;5064959;28;20122;-73
2022/01/29 02:15:47;;;;;;;26.10;4.55;;;;;;;4.73;48.93;101796.56;5051464;28;20049;-73
2022/01/29 02:18:28;;;;;;;41.28;6.35;;;;;;;4.44;49.86;101787.75;4993403;28;20046;-73
2022/01/29 02:21:19;;;;;;;41.15;5.13;;;;;;;4.65;49.81;101790.88;4991843;28;20046;-73
2022/01/29 02:23:45;;;;;;;28.95;5.15;;;;;;;4.68;50.05;101781.84;4994518;28;20105;-73
2022/01/29 02:26:12;;;;;;;42.65;5.63;;;;;;;4.83;49.72;101772.91;4993028;28;20073;-73
2022/01/29 02:28:38;;;;;;;39.28;5.82;;;;;;;4.81;50.01;101770.34;4993353;28;20505;-73
2022/01/29 02:31:05;;;;;;;37.22;5.20;;;;;;;4.76;49.61;101775.13;4993013;28;20161;-72
2022/01/29 02:33:34;;;;;;;42.97;5.38;;;;;;;4.67;50.23;101769.53;4999838;28;20069;-72
2022/01/29 02:36:02;;;;;;;26.67;4.88;;;;;;;4.74;50.19;101773.50;5008085;28;20110;-72
2022/01/29 02:38:28;;;;;;;34.67;5.13;;;;;;;4.58;50.74;101766.47;4993089;28;20145;-73
2022/01/29 02:41:00;;;;;;;42.53;5.05;;;;;;;4.99;49.94;101770.13;4992387;28;20137;-73
2022/01/29 02:43:35;;;;;;;36.90;5.43;;;;;;;4.53;50.47;101762.41;4992045;28;20070;-72
2022/01/29 02:48:50;;;;;;;37.10;5.22;;;;;;;5.10;49.35;101749.00;5006915;28;20063;-73
2022/01/29 02:51:17;;;;;;;32.47;5.25;;;;;;;4.55;51.23;101742.75;5052907;28;20044;-73
2022/01/29 02:54:00;;;;;;;21.98;4.68;;;;;;;4.92;50.79;101739.56;4991888;28;20109;-73
2022/01/29 02:56:30;;;;;;;34.50;6.22;;;;;;;5.00;50.83;101739.91;4991169;28;20073;-72
2022/01/29 02:58:57;;;;;;;40.72;5.75;;;;;;;4.77;51.80;101741.41;4991767;28;20470;-73
2022/01/29 03:01:24;;;;;;;28.58;4.72;;;;;;;4.26;52.88;101731.25;4991194;28;20070;-73
2022/01/29 03:03:50;;;;;;;34.53;5.20;;;;;;;4.67;52.67;101733.16;4991762;28;20120;-72
2022/01/29 03:06:17;;;;;;;31.20;5.80;;;;;;;4.47;52.73;101728.25;4991007;28;20155;-73
2022/01/29 03:08:43;;;;;;;46.03;5.38;;;;;;;4.53;52.97;101717.25;4990869;28;20133;-73
2022/01/29 03:11:11;;;;;;;31.83;6.35;;;;;;;4.62;52.74;101713.97;4989965;28;20070;-73
2022/01/29 03:13:37;;;;;;;39.88;4.93;;;;;;;4.95;52.28;101705.66;4990503;28;20137;-72
2022/01/29 03:16:04;;;;;;;34.95;4.70;;;;;;;4.27;53.14;101700.22;4991619;28;20511;-72
2022/01/29 03:18:30;;;;;;;32.13;4.95;;;;;;;4.53;53.24;101698.63;4991066;28;20474;-73
2022/01/29 03:20:57;;;;;;;27.40;4.97;;;;;;;4.27;53.52;101690.44;4991523;28;20142;-74
2022/01/29 03:23:23;;;;;;;37.15;6.03;;;;;;;4.87;52.66;101688.47;4991092;28;20141;-73
2022/01/29 03:25:50;;;;;;;40.05;4.88;;;;;;;4.77;53.00;101686.44;5045061;28;20068;-72
2022/01/29 03:28:16;;;;;;;39.42;5.68;;;;;;;3.84;55.55;101677.16;5052533;28;20099;-73
2022/01/29 03:30:43;;;;;;;37.80;6.22;;;;;;;4.45;54.00;101674.34;5052035;28;20537;-73
2022/01/29 03:33:09;;;;;;;37.70;5.80;;;;;;;4.32;54.78;101683.06;5052136;28;20073;-73
2022/01/29 03:35:36;;;;;;;36.17;6.40;;;;;;;4.33;54.53;101674.13;5052158;28;20065;-74
2022/01/29 03:38:03;;;;;;;34.00;5.85;;;;;;;4.35;54.88;101658.13;5052359;28;20060;-72
2022/01/29 03:40:31;;;;;;;35.13;6.45;;;;;;;4.23;55.41;101646.44;5052705;28;20510;-72
2022/01/29 03:43:04;;;;;;;37.90;6.20;;;;;;;4.31;55.46;101646.81;5052348;28;20496;-72
2022/01/29 03:45:31;;;;;;;48.55;7.72;;;;;;;4.39;55.06;101637.56;5051864;28;20041;-72
2022/01/29 03:47:58;;;;;;;41.63;6.13;;;;;;;4.48;54.71;101636.94;5052333;28;20369;-74
2022/01/29 03:50:24;;;;;;;43.70;7.55;;;;;;;4.31;55.20;101628.22;5052618;28;20123;-73
2022/01/29 03:52:51;;;;;;;43.83;7.45;;;;;;;4.45;55.32;101621.19;5050836;28;20131;-73
2022/01/29 03:55:18;;;;;;;43.60;7.35;;;;;;;4.37;56.17;101615.50;5052250;28;20108;-73
2022/01/29 03:57:44;;;;;;;43.88;6.53;;;;;;;4.66;54.95;101609.19;5052178;28;20049;-73
2022/01/29 04:00:11;;;;;;;35.33;6.53;;;;;;;4.01;57.03;101595.63;5052975;28;20049;-74
2022/01/29 04:02:38;;;;;;;28.13;6.88;;;;;;;4.08;56.90;101596.97;5049821;28;20140;-74
2022/01/29 04:05:05;;;;;;;44.88;8.27;;;;;;;4.05;57.39;101594.50;5033520;28;20053;-73
2022/01/29 04:07:31;;;;;;;48.45;9.18;;;;;;;4.14;56.91;101585.06;5052795;28;20071;-73
2022/01/29 04:09:59;;;;;;;46.38;8.93;;;;;;;4.16;56.74;101593.81;5051668;28;20110;-74
2022/01/29 04:12:29;;;;;;;48.47;8.52;;;;;;;3.99;57.42;101578.94;5044226;28;20493;-74
2022/01/29 04:14:57;;;;;;;28.50;7.20;;;;;;;4.16;57.50;101578.72;5051028;28;20501;-73
2022/01/29 04:17:24;;;;;;;34.53;8.25;;;;;;;4.50;56.37;101574.78;5051269;28;20489;-72
2022/01/29 04:19:50;;;;;;;42.67;8.68;;;;;;;4.56;56.86;101571.72;5050963;28;20452;-74
2022/01/29 04:22:17;;;;;;;36.70;9.23;;;;;;;4.44;57.04;101569.00;5051326;28;20079;-72
2022/01/29 04:24:43;;;;;;;41.53;8.77;;;;;;;4.47;57.65;101553.72;5052134;28;20049;-72
2022/01/29 04:27:17;;;;;;;31.40;8.45;;;;;;;4.50;57.13;101558.00;5051706;28;20075;-73
2022/01/29 04:29:54;;;;;;;30.67;9.02;;;;;;;4.24;57.66;101549.88;5050574;28;20052;-74
2022/01/29 04:32:30;;;;;;;35.03;7.82;;;;;;;4.73;56.59;101548.50;5050334;28;20041;-73
2022/01/29 04:34:56;;;;;;;39.85;9.30;;;;;;;4.53;57.30;101544.50;5050978;28;20053;-74
2022/01/29 04:37:23;;;;;;;28.73;9.93;;;;;;;4.67;56.73;101536.47;5051282;28;20065;-74
2022/01/29 04:39:49;;;;;;;37.83;10.50;;;;;;;4.46;57.10;101538.75;5050743;28;20128;-74
2022/01/29 04:42:16;;;;;;;42.40;9.30;;;;;;;4.18;58.04;101518.41;5051056;28;20563;-73
2022/01/29 04:44:42;;;;;;;36.20;9.25;;;;;;;4.31;57.68;101521.09;5054790;28;20048;-73
2022/01/29 04:47:08;;;;;;;38.88;10.02;;;;;;;4.34;57.26;101512.94;5062045;28;20136;-73
2022/01/29 04:49:35;;;;;;;35.10;9.98;;;;;;;4.40;57.95;101501.94;5050360;28;20144;-73
2022/01/29 04:52:02;;;;;;;36.38;9.95;;;;;;;4.72;57.11;101499.78;5051206;28;20057;-73
2022/01/29 04:54:28;;;;;;;47.22;10.68;;;;;;;4.54;57.04;101499.22;5051237;28;20067;-74
2022/01/29 04:56:54;;;;;;;31.55;9.43;;;;;;;4.70;57.52;101491.09;5051072;28;20124;-74
2022/01/29 04:59:21;;;;;;;41.50;9.88;;;;;;;4.02;58.32;101485.81;5051409;28;20041;-74
2022/01/29 05:01:47;;;;;;;40.35;9.57;;;;;;;4.58;57.83;101481.25;5051250;28;20061;-73
2022/01/29 05:04:14;;;;;;;45.97;10.88;;;;;;;4.55;57.05;101473.50;5051300;28;20434;-74
2022/01/29 05:06:40;;;;;;;44.00;10.35;;;;;;;4.64;57.38;101467.56;5033144;28;20481;-73
2022/01/29 05:09:09;;;;;;;43.70;10.07;;;;;;;4.54;57.94;101464.69;5050274;28;20495;-74
2022/01/29 05:11:35;;;;;;;37.35;10.57;;;;;;;4.36;58.31;101449.09;5023664;28;20114;-74
2022/01/29 05:14:05;;;;;;;39.72;9.93;;;;;;;4.36;58.09;101451.75;5050520;28;20065;-74
2022/01/29 05:16:43;;;;;;;33.25;9.98;;;;;;;4.53;57.94;101448.84;5049482;28;20045;-74
2022/01/29 05:27:25;;;;;;;33.53;9.52;;;;;;;4.88;57.24;101403.91;5039606;28;20449;-74
2022/01/29 05:29:51;;;;;;;41.22;10.38;;;;;;;4.32;58.37;101414.75;5040894;28;20472;-74
2022/01/29 05:32:18;;;;;;;40.65;10.25;;;;;;;4.52;58.40;101402.81;5050867;28;20124;-74
2022/01/29 05:34:44;;;;;;;33.72;10.10;;;;;;;4.08;59.43;101403.97;5050905;28;20049;-74
2022/01/29 05:37:31;;;;;;;38.50;9.55;;;;;;;4.13;59.34;101393.03;5044639;28;20053;-74
2022/01/29 05:39:57;;;;;;;33.33;12.00;;;;;;;4.33;59.11;101384.56;5043589;28;20095;-74
2022/01/29 05:42:24;;;;;;;45.75;11.85;;;;;;;4.67;57.95;101377.00;5050777;28;20123;-74
2022/01/29 05:44:50;;;;;;;38.17;10.88;;;;;;;4.46;59.10;101374.00;5049403;28;20448;-74
2022/01/29 05:47:16;;;;;;;34.00;11.35;;;;;;;4.70;58.05;101374.13;5050695;28;20128;-74
2022/01/29 05:49:43;;;;;;;34.20;11.25;;;;;;;4.40;59.40;101371.75;5049872;28;20136;-74
2022/01/29 05:52:09;;;;;;;37.15;11.38;;;;;;;4.65;59.18;101362.09;5050094;28;20457;-74
2022/01/29 05:54:36;;;;;;;39.67;11.77;;;;;;;4.70;58.19;101363.50;5049172;28;20871;-74
2022/01/29 05:57:03;;;;;;;41.63;10.98;;;;;;;5.27;56.78;101356.81;5050180;28;20072;-74
2022/01/29 05:59:31;;;;;;;39.30;11.30;;;;;;;4.37;58.86;101349.84;5050377;28;20076;-74
2022/01/29 06:01:57;;;;;;;49.22;12.95;;;;;;;4.80;58.21;101345.13;5050208;28;20072;-74
2022/01/29 06:04:24;;;;;;;39.45;11.50;;;;;;;4.72;58.48;101344.78;5040405;28;20064;-74
2022/01/29 06:06:50;;;;;;;31.67;11.52;;;;;;;4.53;58.49;101342.56;5032318;28;20068;-74
2022/01/29 06:09:17;;;;;;;38.17;13.02;;;;;;;4.71;58.98;101335.13;5049650;28;20044;-74
2022/01/29 06:11:43;;;;;;;40.47;12.55;;;;;;;4.69;58.72;101332.53;5045019;28;20464;-74
2022/01/29 06:14:10;;;;;;;37.30;12.40;;;;;;;4.88;58.48;101315.31;5049864;28;20128;-74
2022/01/29 06:16:36;;;;;;;31.98;12.88;;;;;;;4.92;58.45;101316.78;5049458;28;20147;-74
2022/01/29 06:19:03;;;;;;;34.55;11.82;;;;;;;4.84;59.37;101325.31;5049401;28;20041;-74
2022/01/29 06:21:29;;;;;;;43.80;12.52;;;;;;;4.63;59.66;101310.88;5050454;28;20072;-73
2022/01/29 06:23:58;;;;;;;40.90;13.90;;;;;;;4.84;58.57;101305.88;5050089;28;20116;-74
2022/01/29 06:26:24;;;;;;;33.40;11.77;;;;;;;4.95;59.04;101301.47;5045884;28;20044;-73
2022/01/29 06:28:51;;;;;;;44.00;12.88;;;;;;;4.30;60.17;101294.47;5049593;28;20144;-73
2022/01/29 06:31:18;;;;;;;38.22;13.23;;;;;;;4.19;60.74;101277.59;5049480;28;20044;-73
2022/01/29 06:33:45;;;;;;;32.28;13.15;;;;;;;4.40;60.33;101272.63;5050046;28;20099;-74
2022/01/29 06:36:11;;;;;;;29.58;13.00;;;;;;;4.62;59.73;101267.50;5049376;28;20055;-74
2022/01/29 06:38:38;;;;;;;43.88;14.40;;;;;;;4.89;59.22;101275.31;5049218;28;20474;-73
2022/01/29 06:41:04;;;;;;;44.65;13.43;;;;;;;5.00;58.71;101262.09;5049132;28;20128;-74
2022/01/29 06:43:31;;;;;;;37.80;14.95;;;;;;;4.58;59.76;101266.84;5052848;28;20135;-74
2022/01/29 06:45:57;;;;;;;36.00;13.35;;;;;;;5.04;59.36;101257.44;5053622;28;20373;-74
2022/01/29 06:48:24;;;;;;;36.17;13.32;;;;;;;4.67;60.47;101264.53;5052300;28;20132;-74
2022/01/29 06:50:51;;;;;;;37.95;15.20;;;;;;;4.76;60.21;101240.81;5052994;28;20051;-74
2022/01/29 06:53:17;;;;;;;39.47;14.60;;;;;;;4.42;61.41;101246.81;5052303;28;20516;-74
2022/01/29 06:55:43;;;;;;;35.30;14.40;;;;;;;4.26;61.04;101245.19;5053241;28;20136;-74
2022/01/29 06:58:10;;;;;;;34.20;13.63;;;;;;;4.76;59.95;101238.16;5052794;28;20087;-74
2022/01/29 07:00:56;;;;;;;38.42;15.02;;;;;;;5.03;59.93;101229.97;5051949;28;20041;-74
2022/01/29 07:03:23;;;;;;;35.55;13.80;;;;;;;4.68;60.41;101234.31;5052070;28;20489;-74
2022/01/29 07:05:51;;;;;;;41.95;14.52;;;;;;;4.62;60.56;101226.78;5053479;28;20049;-74
2022/01/29 07:08:17;;;;;;;30.88;14.00;;;;;;;4.83;60.27;101217.25;5053295;28;20466;-74
2022/01/29 07:10:45;;;;;;;29.15;13.82;;;;;;;4.76;61.18;101216.88;5052037;28;20140;-72
2022/01/29 07:13:12;;;;;;;41.95;15.75;;;;;;;4.81;60.22;101213.88;5047129;28;20524;-73
2022/01/29 07:15:38;;;;;;;31.98;14.38;;;;;;;4.61;61.04;101204.69;5062489;28;20076;-73
2022/01/29 07:18:05;;;;;;;34.47;14.50;;;;;;;4.61;61.46;101207.34;5059225;28;20468;-73
2022/01/29 07:20:32;;;;;;;40.40;15.98;;;;;;;5.29;59.58;101206.78;5073489;28;20545;-72
2022/01/29 07:22:58;;;;;;;33.80;15.13;;;;;;;4.68;61.14;101197.97;5072577;28;20075;-73
2022/01/29 07:25:25;;;;;;;45.05;15.95;;;;;;;4.55;61.32;101205.97;5071983;28;20072;-73
2022/01/29 07:27:52;;;;;;;32.25;15.63;;;;;;;4.54;61.24;101190.13;5068494;28;20052;-74
2022/01/29 07:30:19;;;;;;;33.13;16.42;;;;;;;4.70;61.98;101173.94;5055768;28;20095;-72
2022/01/29 07:32:45;;;;;;;38.58;16.67;;;;;;;4.75;61.92;101175.28;5054524;28;21205;-72
2022/01/29 07:35:12;;;;;;;38.65;18.02;;;;;;;4.76;61.67;101170.81;5056775;28;20128;-72
2022/01/29 07:37:39;;;;;;;40.00;18.05;;;;;;;4.29;62.36;101175.06;5064163;28;20461;-72
2022/01/29 07:40:06;;;;;;;39.40;16.70;;;;;;;4.69;61.82;101145.66;5071964;28;20056;-72
2022/01/29 07:42:33;;;;;;;35.58;16.63;;;;;;;4.94;60.90;101150.03;5054149;28;20087;-72
2022/01/29 07:44:59;;;;;;;39.08;17.83;;;;;;;4.71;61.65;101139.28;5054355;28;20394;-71
2022/01/29 07:47:26;;;;;;;33.30;16.85;;;;;;;4.32;62.97;101140.31;5051530;28;20509;-72
2022/01/29 07:49:52;;;;;;;30.52;15.57;;;;;;;4.76;61.86;101129.16;5051882;28;20072;-72
2022/01/29 07:52:18;;;;;;;32.95;16.73;;;;;;;4.64;62.12;101123.91;5051588;28;20131;-72
2022/01/29 07:54:45;;;;;;;35.25;17.85;;;;;;;5.24;60.65;101131.78;5052119;28;20548;-72
2022/01/29 07:57:11;;;;;;;39.15;17.75;;;;;;;5.04;61.29;101130.63;5051279;28;20064;-72
2022/01/29 07:59:38;;;;;;;36.38;17.23;;;;;;;4.92;61.26;101122.72;5052158;28;20049;-72
2022/01/29 08:02:04;;;;;;;30.90;17.27;;;;;;;5.02;61.84;101116.59;5055899;28;20123;-72
2022/01/29 08:04:31;;;;;;;33.08;17.52;;;;;;;5.08;61.34;101102.00;5044439;28;20106;-72
2022/01/29 08:06:58;;;;;;;29.98;16.60;;;;;;;4.54;62.56;101097.13;5051162;28;20501;-72
2022/01/29 08:09:24;;;;;;;35.20;17.77;;;;;;;4.53;62.93;101095.44;5051235;28;20497;-72
2022/01/29 08:11:51;;;;;;;35.80;18.20;;;;;;;5.12;61.49;101089.31;5051772;28;20135;-72
2022/01/29 08:14:17;;;;;;;41.13;18.17;;;;;;;5.35;60.75;101095.53;5051157;28;20140;-72
2022/01/29 08:16:44;;;;;;;40.33;17.92;;;;;;;5.08;61.77;101087.84;5051465;28;20041;-72
2022/01/29 08:19:10;;;;;;;35.00;18.30;;;;;;;5.01;62.16;101084.81;5050415;28;20132;-72
2022/01/29 08:21:38;;;;;;;37.60;18.05;;;;;;;4.70;63.00;101083.59;5051520;28;20191;-72
2022/01/29 08:24:07;;;;;;;34.53;18.45;;;;;;;5.12;62.01;101073.34;5051905;28;20547;-72
2022/01/29 08:26:34;;;;;;;33.20;17.50;;;;;;;5.44;61.33;101090.34;5051851;28;20099;-72
2022/01/29 08:29:01;;;;;;;32.60;17.35;;;;;;;5.13;62.05;101085.69;5025672;28;20128;-72
2022/01/29 08:31:27;;;;;;;44.30;19.67;;;;;;;5.35;61.85;101074.25;5050343;28;20413;-72
2022/01/29 08:33:54;;;;;;;40.13;18.25;;;;;;;4.99;62.41;101068.09;5050676;28;20049;-71
2022/01/29 08:36:21;;;;;;;33.83;17.42;;;;;;;5.13;62.39;101054.63;5051251;28;20057;-71
2022/01/29 08:38:47;;;;;;;29.45;16.00;;;;;;;5.18;62.42;101049.81;5050025;28;20137;-72
2022/01/29 08:41:14;;;;;;;33.35;18.20;;;;;;;5.18;62.57;101047.16;5051551;28;20056;-72
2022/01/29 08:43:40;;;;;;;28.63;16.52;;;;;;;5.27;62.23;101050.91;5050532;28;20386;-71
2022/01/29 08:46:07;;;;;;;38.58;18.63;;;;;;;4.93;63.64;101049.94;5050720;28;20053;-71
2022/01/29 08:48:34;;;;;;;36.25;19.30;;;;;;;5.29;62.42;101036.53;5051555;28;20095;-72
2022/01/29 08:51:00;;;;;;;33.95;19.63;;;;;;;5.21;62.90;101030.97;5051071;28;20071;-72
2022/01/29 08:53:27;;;;;;;37.63;17.55;;;;;;;5.68;62.18;101031.72;5056276;28;20126;-72
2022/01/29 08:55:53;;;;;;;31.50;18.75;;;;;;;5.31;62.87;101022.25;5064244;28;20131;-71
2022/01/29 08:58:19;;;;;;;37.65;19.05;;;;;;;5.33;62.77;101023.00;5050438;28;20072;-71
2022/01/29 09:00:46;;;;;;;33.42;19.75;;;;;;;5.67;62.33;101019.38;5050600;28;20382;-71
2022/01/29 09:03:15;;;;;;;38.83;19.23;;;;;;;5.55;62.56;101014.16;5050019;28;20191;-71
2022/01/29 09:05:44;;;;;;;34.22;19.27;;;;;;;5.60;62.59;101004.03;5049023;28;20044;-72
2022/01/29 09:08:11;;;;;;;36.90;20.30;;;;;;;5.72;62.47;101003.03;5052872;28;20049;-71
2022/01/29 09:10:38;;;;;;;37.67;19.73;;;;;;;5.58;63.12;100996.16;5049998;28;20136;-71
2022/01/29 09:13:06;;;;;;;41.15;20.92;;;;;;;5.53;63.20;100987.69;5050522;28;20041;-71
2022/01/29 09:15:33;;;;;;;39.47;20.13;;;;;;;5.56;63.22;100981.25;5048415;28;20107;-72
2022/01/29 09:18:00;;;;;;;44.60;21.70;;;;;;;5.58;63.04;100980.19;5050111;28;20071;-72
2022/01/29 09:20:27;;;;;;;43.65;20.83;;;;;;;5.46;63.58;100975.84;5050723;28;20119;-71
2022/01/29 09:22:53;;;;;;;37.50;20.55;;;;;;;5.85;62.15;100970.97;5049017;28;20527;-70
2022/01/29 09:25:20;;;;;;;32.55;19.20;;;;;;;6.08;62.07;100961.97;5051066;28;20398;-71
2022/01/29 09:27:46;;;;;;;38.13;20.58;;;;;;;5.96;62.50;100958.47;5050905;28;20064;-71
2022/01/29 09:30:13;;;;;;;37.85;18.63;;;;;;;6.10;62.07;100965.34;5050223;28;20141;-71
2022/01/29 09:32:45;;;;;;;38.50;20.42;;;;;;;6.22;61.59;100963.50;5050548;28;20464;-71
2022/01/29 09:35:11;;;;;;;36.05;20.20;;;;;;;5.89;62.35;100962.59;5049434;28;20045;-71
2022/01/29 09:37:38;;;;;;;42.05;20.17;;;;;;;6.38;61.27;100952.44;5050683;28;20044;-70
2022/01/29 09:40:05;;;;;;;35.22;20.25;;;;;;;5.97;62.59;100951.31;5053308;28;20064;-71
2022/01/29 09:42:31;;;;;;;39.28;19.98;;;;;;;5.68;63.51;100943.88;5066141;28;20080;-71
2022/01/29 09:44:58;;;;;;;39.33;21.20;;;;;;;6.07;62.27;100924.78;5044854;28;20127;-71
2022/01/29 09:47:27;;;;;;;43.70;22.00;;;;;;;6.09;62.33;100912.19;5050427;28;20041;-71
2022/01/29 09:49:54;;;;;;;44.22;22.58;;;;;;;6.22;62.25;100911.06;5051387;28;20128;-71
2022/01/29 09:52:21;;;;;;;40.63;20.90;;;;;;;6.52;61.68;100908.66;5049640;28;20090;-71
2022/01/29 09:54:48;;;;;;;42.65;22.58;;;;;;;6.22;62.58;100905.72;5051006;28;20080;-72
2022/01/29 09:57:15;;;;;;;44.20;22.30;;;;;;;6.24;62.40;100913.59;5049674;28;20072;-71
2022/01/29 09:59:42;;;;;;;43.50;24.17;;;;;;;6.40;62.26;100903.38;5053685;28;20068;-71
2022/01/29 10:02:18;;;;;;;49.65;25.67;;;;;;;6.32;62.64;100899.66;5045245;28;20469;-71
2022/01/29 10:04:55;;;;;;;42.25;24.88;;;;;;;6.51;62.15;100883.81;5060322;28;20049;-71
2022/01/29 10:07:25;;;;;;;51.65;26.83;;;;;;;6.04;63.62;100885.09;5058292;28;20485;-71
2022/01/29 10:09:53;;;;;;;46.45;25.88;;;;;;;6.50;62.89;100876.81;5048552;28;20049;-71
2022/01/29 10:12:31;;;;;;;46.65;25.75;;;;;;;6.32;62.71;100862.34;5050055;28;20044;-71
2022/01/29 10:15:04;;;;;;;52.92;26.77;;;;;;;6.36;62.76;100882.44;5049736;28;20110;-70
2022/01/29 10:17:47;;;;;;;50.03;26.73;;;;;;;6.37;63.19;100876.13;5052360;28;20056;-71
2022/01/29 10:20:15;;;;;;;48.60;25.27;;;;;;;6.49;63.47;100875.09;5054140;28;20144;-70
2022/01/29 10:22:45;;;;;;;45.22;24.85;;;;;;;6.71;62.76;100863.47;5053634;28;20068;-74
2022/01/29 10:25:14;;;;;;;53.88;26.13;;;;;;;6.62;62.95;100872.22;5063610;28;20544;-71
2022/01/29 10:28:11;;;;;;;50.05;27.20;;;;;;;6.61;63.08;100863.41;5056636;28;20087;-71
2022/01/29 10:30:55;;;;;;;48.72;26.40;;;;;;;6.85;61.93;100879.13;5071250;28;20045;-71
2022/01/29 10:33:25;;;;;;;48.35;26.90;;;;;;;6.51;63.50;100851.00;5012686;28;20460;-70
2022/01/29 10:36:14;;;;;;;50.45;26.80;;;;;;;6.56;63.62;100844.28;5031433;28;20116;-71
2022/01/29 10:38:41;;;;;;;43.83;26.63;;;;;;;6.93;62.56;100823.28;5032845;28;20067;-71
2022/01/29 10:41:11;;;;;;;47.97;26.63;;;;;;;6.80;63.30;100833.31;5031965;28;20045;-71
2022/01/29 10:47:00;;;;;;;45.80;25.70;;;;;;;7.10;62.30;100829.81;5013079;28;20144;-71
2022/01/29 10:49:30;;;;;;;43.80;25.88;;;;;;;6.68;63.55;100821.06;5058525;28;20071;-71
2022/01/29 10:52:08;;;;;;;46.80;26.65;;;;;;;6.89;63.08;100821.03;5065440;28;20135;-70
2022/01/29 10:54:37;;;;;;;47.05;25.13;;;;;;;7.44;61.67;100813.47;5038529;28;20064;-71
2022/01/29 10:57:11;;;;;;;47.50;25.65;;;;;;;7.44;62.24;100808.13;5058167;28;20110;-72
2022/01/29 10:59:47;;;;;;;42.50;24.77;;;;;;;7.12;63.39;100803.84;5062457;28;20075;-72
2022/01/29 11:02:15;;;;;;;44.75;26.00;;;;;;;6.71;63.51;100805.66;5071265;28;20075;-72
2022/01/29 11:04:43;;;;;;;39.30;23.17;;;;;;;7.49;61.87;100807.72;5072167;28;20068;-72
2022/01/29 11:07:16;;;;;;;38.42;22.23;;;;;;;7.82;61.17;100803.81;5072701;28;20123;-71
2022/01/29 11:09:50;;;;;;;36.60;22.73;;;;;;;7.39;61.56;100797.84;5072866;28;20384;-72
2022/01/29 11:12:24;;;;;;;36.03;21.60;;;;;;;7.61;62.05;100791.44;5072040;28;20040;-72
2022/01/29 11:15:00;;;;;;;33.55;21.13;;;;;;;7.00;63.42;100772.06;5072493;28;20123;-72
2022/01/29 11:17:28;;;;;;;37.78;20.38;;;;;;;7.28;63.42;100770.44;5072427;28;20440;-72
2022/01/29 11:19:55;;;;;;;33.72;19.38;;;;;;;7.52;62.55;100775.41;5069213;28;20044;-72
2022/01/29 11:22:25;;;;;;;30.27;19.75;;;;;;;7.39;62.96;100762.31;5070707;28;20068;-72
2022/01/29 11:24:57;;;;;;;34.00;18.77;;;;;;;7.57;62.54;100767.81;5072691;28;20080;-72
2022/01/29 11:27:32;;;;;;;25.52;17.30;;;;;;;7.46;62.83;100766.13;5072001;28;20040;-72
2022/01/29 11:30:08;;;;;;;27.45;18.00;;;;;;;7.79;61.60;100750.69;5071793;28;20455;-71
2022/01/29 11:32:41;;;;;;;25.00;16.90;;;;;;;7.79;62.03;100756.84;5072148;28;20434;-71
2022/01/29 11:35:19;;;;;;;26.40;17.73;;;;;;;7.65;61.86;100755.47;5071214;28;20542;-71
2022/01/29 11:38:10;;;;;;;27.08;17.65;;;;;;;7.86;61.53;100746.50;5068228;28;20099;-71
2022/01/29 11:40:54;;;;;;;27.40;17.08;;;;;;;8.02;61.20;100746.75;5052370;28;20131;-71
2022/01/29 11:43:22;;;;;;;30.15;16.67;;;;;;;7.77;62.32;100739.28;5001385;28;20129;-70
2022/01/29 11:46:05;;;;;;;24.23;15.88;;;;;;;7.76;61.67;100729.59;4993888;28;20077;-71